createdAt,value
2018-07-04T00:00:44.235Z,85.91
2018-07-04T00:01:44.220Z,86.25
2018-07-04T00:02:44.171Z,86.38
2018-07-04T00:03:44.161Z,86.38
2018-07-04T00:04:44.140Z,86.15
2018-07-04T00:05:44.103Z,86.25
2018-07-04T00:06:44.093Z,86.63
2018-07-04T00:07:44.066Z,86.15
2018-07-04T00:08:44.037Z,87.05
2018-07-04T00:09:44.021Z,86.96
2018-07-04T00:10:44.008Z,86.63
2018-07-04T00:11:43.995Z,86.92
2018-07-04T00:12:43.949Z,87.30
2018-07-04T00:13:43.940Z,87.30
2018-07-04T00:14:43.892Z,86.72
2018-07-04T00:15:43.876Z,87.21
2018-07-04T00:16:43.855Z,87.11
2018-07-04T00:17:43.833Z,87.49
2018-07-04T00:18:43.805Z,87.49
2018-07-04T00:19:43.787Z,87.68
2018-07-04T00:20:43.766Z,88.35
2018-07-04T00:21:43.743Z,88.07
2018-07-04T00:22:43.714Z,87.88
2018-07-04T00:23:43.690Z,87.88
2018-07-04T00:24:43.676Z,88.65
2018-07-04T00:25:43.691Z,88.84
2018-07-04T00:26:43.615Z,88.45
2018-07-04T00:27:43.597Z,88.65
2018-07-04T00:28:43.589Z,88.45
2018-07-04T00:29:43.561Z,88.60
2018-07-04T00:30:43.546Z,88.84
2018-07-04T00:31:43.512Z,88.93
2018-07-04T00:32:43.486Z,88.89
2018-07-04T00:33:43.465Z,89.51
2018-07-04T00:34:43.436Z,89.03
2018-07-04T00:35:43.408Z,89.12
2018-07-04T00:36:43.401Z,88.84
2018-07-04T00:37:43.374Z,88.84
2018-07-04T00:38:43.350Z,88.79
2018-07-04T00:39:43.319Z,88.98
2018-07-04T00:40:43.312Z,89.47
2018-07-04T00:41:43.309Z,89.47
2018-07-04T00:42:43.251Z,90.42
2018-07-04T00:43:43.236Z,89.94
2018-07-04T00:44:43.205Z,90.33
2018-07-04T00:45:43.185Z,90.33
2018-07-04T00:46:43.153Z,90.33
2018-07-04T00:47:43.131Z,90.33
2018-07-04T00:48:43.117Z,90.33
2018-07-04T00:49:43.101Z,90.33
2018-07-04T00:50:43.071Z,90.23
2018-07-04T00:51:43.046Z,90.33
2018-07-04T00:52:43.015Z,90.33
2018-07-04T00:53:42.996Z,90.23
2018-07-04T00:54:42.972Z,90.33
2018-07-04T00:55:42.947Z,89.85
2018-07-04T00:56:42.926Z,89.85
2018-07-04T00:57:42.906Z,90.33
2018-07-04T00:58:42.874Z,90.33
2018-07-04T00:59:42.867Z,89.85
2018-07-04T01:00:42.840Z,89.85
2018-07-04T01:01:42.807Z,89.94
2018-07-04T01:02:42.782Z,90.33
2018-07-04T01:03:42.759Z,90.61
2018-07-04T01:04:42.743Z,89.94
2018-07-04T01:05:42.718Z,90.33
2018-07-04T01:06:42.691Z,90.42
2018-07-04T01:07:42.672Z,90.33
2018-07-04T01:08:42.644Z,90.33
2018-07-04T01:09:42.619Z,90.42
2018-07-04T01:10:42.609Z,90.33
2018-07-04T01:11:42.577Z,90.38
2018-07-04T01:12:42.549Z,90.67
2018-07-04T01:13:42.521Z,90.57
2018-07-04T01:14:42.503Z,90.95
2018-07-04T01:15:42.478Z,90.47
2018-07-04T01:16:42.455Z,90.67
2018-07-04T01:17:42.443Z,91.63
2018-07-04T01:18:42.405Z,91.05
2018-07-04T01:19:42.393Z,91.14
2018-07-04T01:20:42.360Z,91.05
2018-07-04T01:21:42.334Z,91.24
2018-07-04T01:22:42.320Z,91.34
2018-07-04T01:23:42.292Z,91.72
2018-07-04T01:24:42.290Z,91.82
2018-07-04T01:25:42.263Z,92.10
2018-07-04T01:26:42.219Z,92.01
2018-07-04T01:27:42.207Z,91.82
2018-07-04T01:28:42.179Z,91.72
2018-07-04T01:29:42.154Z,92.01
2018-07-04T01:30:42.125Z,92.49
2018-07-04T01:31:42.107Z,92.49
2018-07-04T01:32:42.080Z,92.30
2018-07-04T01:33:42.062Z,92.20
2018-07-04T01:34:42.040Z,92.82
2018-07-04T01:35:42.027Z,93.11
2018-07-04T01:36:41.989Z,92.54
2018-07-04T01:37:41.976Z,92.82
2018-07-04T01:38:41.965Z,93.21
2018-07-04T01:39:41.912Z,93.21
2018-07-04T01:40:41.900Z,93.59
2018-07-04T01:41:41.864Z,93.88
2018-07-04T01:42:41.894Z,93.49
2018-07-04T01:43:41.819Z,93.49
2018-07-04T01:44:41.808Z,93.78
2018-07-04T01:45:41.780Z,93.40
2018-07-04T01:46:41.750Z,93.69
2018-07-04T01:47:41.725Z,93.98
2018-07-04T01:48:41.713Z,94.07
2018-07-04T01:49:41.683Z,93.88
2018-07-04T01:50:41.654Z,93.98
2018-07-04T01:51:41.642Z,94.26
2018-07-04T01:52:41.616Z,94.45
2018-07-04T01:53:41.605Z,93.93
2018-07-04T01:54:41.565Z,94.26
2018-07-04T01:55:41.543Z,94.26
2018-07-04T01:56:41.548Z,94.55
2018-07-04T01:57:42.773Z,94.26
2018-07-04T01:58:43.312Z,93.69
2018-07-04T01:59:41.445Z,93.59
2018-07-04T02:00:41.425Z,93.40
2018-07-04T02:01:41.400Z,93.69
2018-07-04T02:02:41.376Z,93.21
2018-07-04T02:03:41.350Z,93.40
2018-07-04T02:04:41.335Z,93.59
2018-07-04T02:05:41.308Z,93.69
2018-07-04T02:06:41.280Z,93.49
2018-07-04T02:07:41.274Z,93.69
2018-07-04T02:08:41.253Z,93.26
2018-07-04T02:09:41.205Z,94.21
2018-07-04T02:10:41.184Z,93.83
2018-07-04T02:11:41.167Z,93.88
2018-07-04T02:12:41.151Z,94.12
2018-07-04T02:13:41.122Z,94.21
2018-07-04T02:14:41.083Z,94.12
2018-07-04T02:15:41.074Z,94.21
2018-07-04T02:16:41.040Z,94.79
2018-07-04T02:17:41.018Z,94.98
2018-07-04T02:18:41.001Z,95.07
2018-07-04T02:19:40.968Z,94.79
2018-07-04T02:20:40.949Z,95.07
2018-07-04T02:21:40.928Z,95.17
2018-07-04T02:22:40.909Z,95.07
2018-07-04T02:23:40.876Z,94.79
2018-07-04T02:24:40.852Z,95.07
2018-07-04T02:25:40.830Z,94.98
2018-07-04T02:26:40.809Z,94.79
2018-07-04T02:27:40.783Z,95.17
2018-07-04T02:28:40.763Z,94.98
2018-07-04T02:29:40.739Z,95.65
2018-07-04T02:30:40.719Z,95.84
2018-07-04T02:31:40.702Z,95.84
2018-07-04T02:32:40.669Z,95.70
2018-07-04T02:33:40.637Z,95.75
2018-07-04T02:34:40.629Z,95.51
2018-07-04T02:35:40.592Z,95.31
2018-07-04T02:36:40.566Z,95.75
2018-07-04T02:37:40.542Z,95.46
2018-07-04T02:38:40.520Z,96.18
2018-07-04T02:39:40.494Z,96.27
2018-07-04T02:40:40.476Z,96.56
2018-07-04T02:41:40.448Z,96.75
2018-07-04T02:42:40.423Z,96.37
2018-07-04T02:43:40.404Z,96.75
2018-07-04T02:44:40.377Z,96.56
2018-07-04T02:45:40.355Z,96.18
2018-07-04T02:46:40.338Z,96.56
2018-07-04T02:47:40.314Z,96.37
2018-07-04T02:48:40.297Z,96.56
2018-07-04T02:49:40.251Z,96.66
2018-07-04T02:50:40.233Z,97.13
2018-07-04T02:51:40.245Z,96.94
2018-07-04T02:52:40.196Z,97.23
2018-07-04T02:53:40.157Z,97.33
2018-07-04T02:54:40.133Z,97.23
2018-07-04T02:55:40.118Z,96.75
2018-07-04T02:56:40.086Z,96.75
2018-07-04T02:57:40.068Z,96.75
2018-07-04T02:58:40.039Z,97.33
2018-07-04T02:59:40.011Z,97.23
2018-07-04T03:00:40.047Z,97.23
2018-07-04T03:01:39.964Z,97.90
2018-07-04T03:02:40.011Z,96.66
2018-07-04T03:03:39.962Z,97.33
2018-07-04T03:04:39.964Z,97.52
2018-07-04T03:05:39.872Z,98.09
2018-07-04T03:06:39.849Z,98.09
2018-07-04T03:07:39.824Z,98.04
2018-07-04T03:08:39.804Z,98.24
2018-07-04T03:09:39.783Z,97.95
2018-07-04T03:10:39.755Z,98.43
2018-07-04T03:11:39.735Z,98.33
2018-07-04T03:12:39.702Z,98.14
2018-07-04T03:13:39.681Z,98.14
2018-07-04T03:14:39.651Z,98.14
2018-07-04T03:15:39.628Z,98.33
2018-07-04T03:16:39.609Z,98.33
2018-07-04T03:17:39.584Z,98.52
2018-07-04T03:18:39.559Z,98.66
2018-07-04T03:19:39.537Z,98.43
2018-07-04T03:20:39.517Z,97.85
2018-07-04T03:21:39.489Z,97.33
2018-07-04T03:22:39.457Z,97.33
2018-07-04T03:23:39.438Z,97.71
2018-07-04T03:24:39.422Z,97.47
2018-07-04T03:25:39.396Z,97.37
2018-07-04T03:26:39.366Z,97.95
2018-07-04T03:27:39.349Z,97.85
2018-07-04T03:28:39.317Z,98.24
2018-07-04T03:29:39.314Z,98.04
2018-07-04T03:30:39.271Z,98.14
2018-07-04T03:31:39.250Z,97.85
2018-07-04T03:32:39.236Z,98.14
2018-07-04T03:33:39.199Z,98.43
2018-07-04T03:34:39.168Z,98.24
2018-07-04T03:35:39.146Z,98.14
2018-07-04T03:36:39.131Z,98.43
2018-07-04T03:37:39.111Z,97.66
2018-07-04T03:38:39.076Z,97.28
2018-07-04T03:39:39.048Z,97.66
2018-07-04T03:40:39.030Z,97.18
2018-07-04T03:41:39.014Z,97.80
2018-07-04T03:42:38.986Z,97.23
2018-07-04T03:43:38.957Z,97.13
2018-07-04T03:44:38.931Z,97.18
2018-07-04T03:45:38.906Z,97.66
2018-07-04T03:46:38.887Z,97.42
2018-07-04T03:47:38.871Z,97.28
2018-07-04T03:48:38.835Z,97.23
2018-07-04T03:49:38.807Z,97.23
2018-07-04T03:50:38.781Z,97.23
2018-07-04T03:51:38.766Z,97.33
2018-07-04T03:52:38.734Z,97.04
2018-07-04T03:53:38.715Z,96.75
2018-07-04T03:54:38.684Z,96.75
2018-07-04T03:55:38.667Z,96.75
2018-07-04T03:56:38.640Z,96.37
2018-07-04T03:57:38.615Z,96.37
2018-07-04T03:58:38.590Z,96.94
2018-07-04T03:59:38.573Z,96.75
2018-07-04T04:00:38.537Z,96.66
2018-07-04T04:01:38.532Z,96.84
2018-07-04T04:02:38.491Z,96.56
2018-07-04T04:03:38.465Z,96.94
2018-07-04T04:04:38.451Z,96.47
2018-07-04T04:05:38.441Z,96.56
2018-07-04T04:06:38.407Z,96.27
2018-07-04T04:07:38.376Z,96.75
2018-07-04T04:08:38.360Z,96.66
2018-07-04T04:09:38.327Z,96.47
2018-07-04T04:10:38.306Z,97.13
2018-07-04T04:11:38.295Z,96.27
2018-07-04T04:12:38.271Z,95.61
2018-07-04T04:13:38.233Z,95.46
2018-07-04T04:14:38.199Z,94.89
2018-07-04T04:15:38.183Z,94.45
2018-07-04T04:16:39.068Z,94.40
2018-07-04T04:17:38.133Z,94.93
2018-07-04T04:18:38.110Z,94.36
2018-07-04T04:19:38.087Z,93.83
2018-07-04T04:20:38.062Z,93.79
2018-07-04T04:21:38.042Z,94.55
2018-07-04T04:22:38.020Z,94.69
2018-07-04T04:23:37.993Z,94.93
2018-07-04T04:24:37.979Z,94.65
2018-07-04T04:25:37.940Z,95.12
2018-07-04T04:26:37.918Z,94.93
2018-07-04T04:27:37.895Z,95.51
2018-07-04T04:28:37.870Z,95.79
2018-07-04T04:29:37.853Z,95.70
2018-07-04T04:30:37.816Z,95.51
2018-07-04T04:31:37.802Z,95.12
2018-07-04T04:32:37.774Z,95.03
2018-07-04T04:33:37.744Z,95.41
2018-07-04T04:34:37.736Z,95.61
2018-07-04T04:35:37.704Z,95.79
2018-07-04T04:36:37.686Z,94.84
2018-07-04T04:37:37.656Z,95.07
2018-07-04T04:38:37.666Z,94.69
2018-07-04T04:39:37.604Z,95.07
2018-07-04T04:40:37.587Z,94.98
2018-07-04T04:41:37.573Z,94.98
2018-07-04T04:42:37.528Z,95.36
2018-07-04T04:43:37.513Z,94.89
2018-07-04T04:44:37.492Z,95.17
2018-07-04T04:45:37.456Z,95.17
2018-07-04T04:46:37.442Z,94.69
2018-07-04T04:47:37.406Z,94.40
2018-07-04T04:48:37.386Z,93.74
2018-07-04T04:49:37.358Z,94.60
2018-07-04T04:50:37.345Z,94.60
2018-07-04T04:51:37.314Z,94.40
2018-07-04T04:52:37.293Z,94.12
2018-07-04T04:53:37.278Z,93.26
2018-07-04T04:54:37.242Z,93.74
2018-07-04T04:55:37.252Z,93.26
2018-07-04T04:56:37.191Z,94.12
2018-07-04T04:57:37.169Z,93.93
2018-07-04T04:58:37.152Z,94.12
2018-07-04T04:59:37.121Z,93.59
2018-07-04T05:00:37.106Z,93.40
2018-07-04T05:01:37.084Z,93.11
2018-07-04T05:02:37.056Z,92.82
2018-07-04T05:03:37.032Z,92.82
2018-07-04T05:04:37.012Z,92.92
2018-07-04T05:05:37.002Z,92.73
2018-07-04T05:06:36.951Z,92.44
2018-07-04T05:07:36.930Z,93.02
2018-07-04T05:08:36.910Z,92.73
2018-07-04T05:09:36.889Z,91.58
2018-07-04T05:10:36.857Z,92.25
2018-07-04T05:11:36.835Z,92.35
2018-07-04T05:12:36.828Z,92.73
2018-07-04T05:13:36.788Z,93.11
2018-07-04T05:14:37.585Z,93.07
2018-07-04T05:15:36.768Z,92.73
2018-07-04T05:16:36.725Z,93.40
2018-07-04T05:17:36.707Z,92.82
2018-07-04T05:18:36.672Z,92.82
2018-07-04T05:19:36.648Z,92.15
2018-07-04T05:20:36.629Z,92.15
2018-07-04T05:21:36.602Z,92.35
2018-07-04T05:22:36.596Z,92.63
2018-07-04T05:23:36.558Z,92.82
2018-07-04T05:24:36.529Z,92.82
2018-07-04T05:25:36.526Z,92.82
2018-07-04T05:26:36.505Z,92.54
2018-07-04T05:27:36.454Z,92.82
2018-07-04T05:28:36.434Z,92.63
2018-07-04T05:29:36.420Z,93.40
2018-07-04T05:30:36.401Z,93.21
2018-07-04T05:31:36.360Z,92.82
2018-07-04T05:32:36.347Z,93.30
2018-07-04T05:33:36.314Z,92.63
2018-07-04T05:34:36.291Z,92.73
2018-07-04T05:35:36.271Z,92.77
2018-07-04T05:36:36.260Z,92.20
2018-07-04T05:37:36.234Z,91.72
2018-07-04T05:38:36.200Z,91.72
2018-07-04T05:39:36.184Z,91.53
2018-07-04T05:40:36.193Z,92.10
2018-07-04T05:41:36.151Z,92.39
2018-07-04T05:42:36.105Z,91.53
2018-07-04T05:43:36.075Z,91.72
2018-07-04T05:44:36.059Z,91.34
2018-07-04T05:45:36.039Z,91.34
2018-07-04T05:46:36.009Z,91.00
2018-07-04T05:47:36.147Z,90.71
2018-07-04T05:48:35.951Z,90.14
2018-07-04T05:49:35.939Z,89.75
2018-07-04T05:50:35.903Z,89.65
2018-07-04T05:51:35.891Z,89.56
2018-07-04T05:52:35.869Z,89.41
2018-07-04T05:53:35.839Z,88.93
2018-07-04T05:54:36.605Z,88.84
2018-07-04T05:55:35.786Z,88.74
2018-07-04T05:56:35.766Z,88.55
2018-07-04T05:57:35.759Z,88.74
2018-07-04T05:58:35.721Z,88.98
2018-07-04T05:59:35.715Z,89.41
2018-07-04T06:00:35.667Z,88.65
2018-07-04T06:01:35.656Z,89.22
2018-07-04T06:02:35.700Z,89.22
2018-07-04T06:03:35.607Z,88.35
2018-07-04T06:04:35.584Z,88.84
2018-07-04T06:05:35.570Z,88.74
2018-07-04T06:06:35.528Z,87.98
2018-07-04T06:07:35.511Z,87.30
2018-07-04T06:08:35.485Z,87.44
2018-07-04T06:09:35.467Z,86.77
2018-07-04T06:10:35.433Z,86.48
2018-07-04T06:11:35.417Z,86.29
2018-07-04T06:12:35.400Z,86.19
2018-07-04T06:13:35.375Z,86.19
2018-07-04T06:14:35.357Z,86.00
2018-07-04T06:15:35.322Z,85.33
2018-07-04T06:16:35.300Z,85.14
2018-07-04T06:17:35.284Z,84.95
2018-07-04T06:18:35.367Z,84.56
2018-07-04T06:19:35.297Z,84.18
2018-07-04T06:20:35.213Z,84.75
2018-07-04T06:21:35.231Z,84.95
2018-07-04T06:22:35.208Z,84.95
2018-07-04T06:23:35.196Z,84.75
2018-07-04T06:24:35.198Z,84.12
2018-07-04T06:25:35.126Z,84.41
2018-07-04T06:26:35.063Z,83.16
2018-07-04T06:27:35.050Z,82.49
2018-07-04T06:28:35.032Z,82.30
2018-07-04T06:29:34.999Z,82.30
2018-07-04T06:30:34.986Z,82.34
2018-07-04T06:31:34.953Z,82.49
2018-07-04T06:32:34.926Z,81.92
2018-07-04T06:33:34.912Z,81.76
2018-07-04T06:34:34.873Z,81.57
2018-07-04T06:35:34.857Z,82.05
2018-07-04T06:36:34.846Z,80.99
2018-07-04T06:37:34.817Z,81.28
2018-07-04T06:38:34.795Z,81.86
2018-07-04T06:39:34.766Z,82.53
2018-07-04T06:40:34.738Z,81.96
2018-07-04T06:41:34.722Z,81.38
2018-07-04T06:42:34.726Z,81.67
2018-07-04T06:43:34.684Z,81.19
2018-07-04T06:44:34.721Z,81.67
2018-07-04T06:45:34.631Z,80.61
2018-07-04T06:46:34.650Z,80.94
2018-07-04T06:47:34.591Z,81.04
2018-07-04T06:48:34.573Z,80.65
2018-07-04T06:49:34.536Z,80.46
2018-07-04T06:50:34.510Z,80.36
2018-07-04T06:51:34.493Z,80.17
2018-07-04T06:52:34.463Z,80.75
2018-07-04T06:53:34.450Z,80.17
2018-07-04T06:54:34.450Z,79.50
2018-07-04T06:55:34.411Z,79.88
2018-07-04T06:56:34.381Z,80.07
2018-07-04T06:57:34.357Z,79.69
2018-07-04T06:58:34.330Z,80.46
2018-07-04T06:59:34.311Z,80.07
2018-07-04T07:00:34.283Z,80.27
2018-07-04T07:01:34.268Z,80.36
2018-07-04T07:02:34.248Z,80.36
2018-07-04T07:03:34.223Z,80.17
2018-07-04T07:04:34.203Z,80.75
2018-07-04T07:05:34.196Z,80.99
2018-07-04T07:06:34.151Z,81.13
2018-07-04T07:07:34.132Z,81.19
2018-07-04T07:08:34.124Z,80.71
2018-07-04T07:09:34.091Z,81.13
2018-07-04T07:10:34.065Z,81.61
2018-07-04T07:11:34.040Z,80.75
2018-07-04T07:12:34.022Z,80.46
2018-07-04T07:13:33.987Z,80.94
2018-07-04T07:14:34.093Z,80.17
2018-07-04T07:15:33.950Z,80.17
2018-07-04T07:16:33.925Z,81.07
2018-07-04T07:17:33.900Z,80.30
2018-07-04T07:18:33.873Z,79.92
2018-07-04T07:19:33.874Z,80.02
2018-07-04T07:20:33.830Z,80.30
2018-07-04T07:21:33.825Z,80.02
2018-07-04T07:22:33.789Z,79.82
2018-07-04T07:23:33.763Z,79.63
2018-07-04T07:24:33.749Z,79.53
2018-07-04T07:25:33.724Z,79.44
2018-07-04T07:26:33.702Z,78.67
2018-07-04T07:27:33.677Z,78.96
2018-07-04T07:28:33.666Z,78.77
2018-07-04T07:29:33.639Z,78.71
2018-07-04T07:30:33.609Z,79.19
2018-07-04T07:31:33.601Z,79.05
2018-07-04T07:32:33.580Z,79.48
2018-07-04T07:33:33.535Z,78.61
2018-07-04T07:34:33.520Z,78.90
2018-07-04T07:35:33.498Z,78.33
2018-07-04T07:36:33.489Z,78.71
2018-07-04T07:37:33.461Z,78.42
2018-07-04T07:38:33.436Z,78.13
2018-07-04T07:39:33.422Z,77.98
2018-07-04T07:40:33.385Z,77.21
2018-07-04T07:41:33.367Z,76.44
2018-07-04T07:42:33.339Z,76.15
2018-07-04T07:43:33.320Z,75.71
2018-07-04T07:44:33.293Z,75.13
2018-07-04T07:45:33.275Z,75.13
2018-07-04T07:46:33.255Z,74.55
2018-07-04T07:47:33.229Z,74.20
2018-07-04T07:48:33.397Z,73.14
2018-07-04T07:49:33.191Z,73.05
2018-07-04T07:50:33.203Z,72.66
2018-07-04T07:51:33.148Z,72.41
2018-07-04T07:52:33.128Z,70.96
2018-07-04T07:53:33.105Z,70.57
2018-07-04T07:54:33.082Z,69.84
2018-07-04T07:55:33.056Z,69.45
2018-07-04T07:56:33.037Z,69.07
2018-07-04T07:57:33.014Z,68.52
2018-07-04T07:58:32.997Z,68.91
2018-07-04T07:59:32.977Z,67.46
2018-07-04T08:00:32.948Z,67.43
2018-07-04T08:01:32.931Z,67.43
2018-07-04T08:02:32.911Z,67.91
2018-07-04T08:03:32.886Z,68.68
2018-07-04T08:04:32.900Z,68.71
2018-07-04T08:05:32.842Z,68.49
2018-07-04T08:06:32.823Z,68.62
2018-07-04T08:07:32.808Z,68.91
2018-07-04T08:08:32.785Z,69.58
2018-07-04T08:09:32.752Z,69.20
2018-07-04T08:10:32.741Z,67.94
2018-07-04T08:11:32.731Z,68.62
2018-07-04T08:12:32.689Z,68.62
2018-07-04T08:13:32.679Z,67.85
2018-07-04T08:14:32.664Z,67.46
2018-07-04T08:15:32.634Z,67.65
2018-07-04T08:16:32.621Z,68.43
2018-07-04T08:17:32.612Z,68.04
2018-07-04T08:18:32.578Z,67.27
2018-07-04T08:19:32.560Z,67.71
2018-07-04T08:20:32.526Z,67.65
2018-07-04T08:21:32.509Z,67.17
2018-07-04T08:22:32.506Z,67.36
2018-07-04T08:23:32.464Z,66.85
2018-07-04T08:24:32.452Z,67.46
2018-07-04T08:25:32.435Z,67.17
2018-07-04T08:26:32.404Z,67.27
2018-07-04T08:27:32.383Z,67.36
2018-07-04T08:28:32.368Z,67.17
2018-07-04T08:29:32.376Z,66.72
2018-07-04T08:30:33.549Z,67.20
2018-07-04T08:31:32.302Z,67.01
2018-07-04T08:32:32.289Z,67.11
2018-07-04T08:33:32.316Z,67.40
2018-07-04T08:34:32.242Z,67.59
2018-07-04T08:35:32.249Z,66.82
2018-07-04T08:36:32.212Z,65.75
2018-07-04T08:37:32.174Z,65.30
2018-07-04T08:38:32.172Z,64.89
2018-07-04T08:39:32.162Z,65.08
2018-07-04T08:40:32.121Z,65.27
2018-07-04T08:41:32.104Z,65.47
2018-07-04T08:42:32.080Z,65.37
2018-07-04T08:43:32.066Z,65.47
2018-07-04T08:44:32.033Z,65.17
2018-07-04T08:45:32.021Z,64.98
2018-07-04T08:46:31.993Z,65.11
2018-07-04T08:47:31.981Z,64.50
2018-07-04T08:48:31.965Z,64.40
2018-07-04T08:49:31.945Z,64.50
2018-07-04T08:50:31.916Z,64.40
2018-07-04T08:51:31.893Z,64.40
2018-07-04T08:52:32.646Z,65.47
2018-07-04T08:53:32.647Z,65.47
2018-07-04T08:54:31.839Z,64.98
2018-07-04T08:55:31.814Z,65.43
2018-07-04T08:56:31.804Z,65.47
2018-07-04T08:57:31.780Z,65.37
2018-07-04T08:58:31.759Z,65.27
2018-07-04T08:59:31.744Z,65.08
2018-07-04T09:00:31.720Z,65.75
2018-07-04T09:01:31.695Z,64.53
2018-07-04T09:02:31.678Z,62.95
2018-07-04T09:03:31.658Z,63.24
2018-07-04T09:04:31.633Z,63.85
2018-07-04T09:05:31.651Z,63.28
2018-07-04T09:06:31.594Z,63.28
2018-07-04T09:07:31.574Z,63.28
2018-07-04T09:08:31.560Z,63.66
2018-07-04T09:09:31.548Z,63.37
2018-07-04T09:10:32.058Z,63.66
2018-07-04T09:11:31.525Z,63.08
2018-07-04T09:12:31.483Z,62.98
2018-07-04T09:13:31.456Z,63.08
2018-07-04T09:14:31.429Z,62.05
2018-07-04T09:15:31.414Z,61.95
2018-07-04T09:16:31.396Z,62.15
2018-07-04T09:17:31.377Z,62.24
2018-07-04T09:18:31.349Z,62.34
2018-07-04T09:19:31.356Z,61.95
2018-07-04T09:20:31.345Z,62.05
2018-07-04T09:21:31.298Z,63.21
2018-07-04T09:23:31.259Z,61.95
2018-07-04T09:24:31.239Z,62.05
2018-07-04T09:25:31.219Z,61.60
2018-07-04T09:26:31.192Z,61.21
2018-07-04T09:27:31.169Z,59.76
2018-07-04T09:28:31.161Z,59.08
2018-07-04T09:29:31.134Z,58.89
2018-07-04T09:30:31.107Z,59.28
2018-07-04T09:31:31.120Z,59.18
2018-07-04T09:32:31.081Z,59.47
2018-07-04T09:33:31.061Z,59.86
2018-07-04T09:34:31.034Z,57.54
2018-07-04T09:35:31.033Z,57.08
2018-07-04T09:36:30.996Z,56.70
2018-07-04T09:37:30.983Z,56.98
2018-07-04T09:38:30.992Z,56.70
2018-07-04T09:39:30.951Z,56.98
2018-07-04T09:40:30.919Z,57.66
2018-07-04T09:41:30.893Z,57.18
2018-07-04T09:42:30.906Z,56.50
2018-07-04T09:43:30.858Z,56.88
2018-07-04T09:44:30.841Z,56.60
2018-07-04T09:45:30.822Z,56.52
2018-07-04T09:46:30.803Z,57.40
2018-07-04T09:47:30.781Z,57.88
2018-07-04T09:48:30.769Z,57.79
2018-07-04T09:49:30.746Z,57.50
2018-07-04T09:50:30.727Z,57.88
2018-07-04T09:51:30.737Z,57.98
2018-07-04T09:52:30.689Z,57.98
2018-07-04T09:53:30.663Z,57.59
2018-07-04T09:54:30.651Z,57.50
2018-07-04T09:55:30.637Z,57.98
2018-07-04T09:56:30.618Z,58.95
2018-07-04T09:57:30.584Z,60.01
2018-07-04T09:58:30.577Z,60.50
2018-07-04T09:59:30.580Z,60.72
2018-07-04T10:00:30.532Z,59.05
2018-07-04T10:01:30.513Z,58.69
2018-07-04T10:02:30.492Z,58.59
2018-07-04T10:03:30.486Z,58.27
2018-07-04T10:04:30.455Z,58.07
2018-07-04T10:05:30.427Z,57.88
2018-07-04T10:06:30.418Z,58.56
2018-07-04T10:07:30.395Z,57.11
2018-07-04T10:08:30.383Z,57.91
2018-07-04T10:09:30.365Z,57.40
2018-07-04T10:10:30.340Z,56.94
2018-07-04T10:11:30.325Z,57.33
2018-07-04T10:12:30.349Z,57.43
2018-07-04T10:13:30.277Z,56.87
2018-07-04T10:14:30.264Z,56.49
2018-07-04T10:15:30.242Z,55.32
2018-07-04T10:16:30.231Z,55.22
2018-07-04T10:17:30.205Z,53.97
2018-07-04T10:18:30.189Z,53.29
2018-07-04T10:19:30.177Z,52.90
2018-07-04T10:20:30.149Z,52.42
2018-07-04T10:21:30.135Z,52.61
2018-07-04T10:22:30.144Z,52.71
2018-07-04T10:23:30.090Z,53.00
2018-07-04T10:24:30.130Z,52.22
2018-07-04T10:25:30.048Z,52.22
2018-07-04T10:26:30.039Z,52.32
2018-07-04T10:28:30.012Z,52.32
2018-07-04T10:29:29.980Z,51.25
2018-07-04T10:30:29.974Z,51.28
2018-07-04T10:31:29.941Z,50.57
2018-07-04T10:32:29.926Z,50.38
2018-07-04T10:33:29.907Z,50.67
2018-07-04T10:34:29.891Z,51.16
2018-07-04T10:35:29.868Z,50.79
2018-07-04T10:36:29.852Z,50.21
2018-07-04T10:37:29.823Z,50.50
2018-07-04T10:38:30.584Z,51.28
2018-07-04T10:40:29.787Z,50.21
2018-07-04T10:41:29.753Z,50.02
2018-07-04T10:42:29.739Z,50.21
2018-07-04T10:43:29.714Z,50.21
2018-07-04T10:44:29.709Z,49.44
2018-07-04T10:45:29.704Z,50.41
2018-07-04T10:46:29.667Z,49.54
2018-07-04T10:47:29.647Z,49.66
2018-07-04T10:48:29.630Z,49.95
2018-07-04T10:49:29.607Z,50.14
2018-07-04T10:50:29.595Z,49.75
2018-07-04T10:51:29.572Z,49.85
2018-07-04T10:52:29.556Z,49.75
2018-07-04T10:54:29.520Z,49.85
2018-07-04T10:55:29.503Z,50.26
2018-07-04T10:56:29.488Z,50.26
2018-07-04T10:57:29.461Z,50.07
2018-07-04T10:58:29.473Z,50.56
2018-07-04T10:59:29.440Z,51.23
2018-07-04T11:00:29.415Z,50.74
2018-07-04T11:01:29.396Z,51.14
2018-07-04T11:02:29.373Z,51.43
2018-07-04T11:03:29.353Z,51.33
2018-07-04T11:04:29.360Z,49.77
2018-07-04T11:05:31.188Z,49.10
2018-07-04T11:06:29.305Z,48.22
2018-07-04T11:11:29.227Z,48.64
2018-07-04T11:12:29.216Z,48.64
2018-07-04T11:13:29.186Z,49.22
2018-07-04T11:14:29.164Z,49.05
2018-07-04T11:15:29.144Z,49.05
2018-07-04T11:17:29.105Z,48.47
2018-07-04T11:18:29.097Z,49.54
2018-07-04T11:19:29.071Z,48.85
2018-07-04T11:20:29.059Z,48.57
2018-07-04T11:22:29.057Z,47.88
